MapTableWeb Map

Choose a state:
Most recent flow and stage for Montana
(Stations highlighted in red are currently above flood stage)
USGS
station
ID
USGS station name NWS
flood
stage
(ft)
Most recent
stage
(ft)
Most recent
flow
(cfs)
Historical
peaks
(cfs)
Most recent
local
date/time
NWS
station
ID
05014300 Swiftcurrent Cr ab Swiftcurrent Lk at Many Glacier   0.82 14.5 2,000 2018-04-20 13:30:00 SCLM8
05014500 Swiftcurrent Creek at Many Glacier MT   1.58 24.2 6,700 2018-04-20 13:30:00 MGGM8
05015500 Lake Sherburne at Sherburne MT   4769.56

 

  2018-04-20 13:00:00 SBUM8
05017500 St. Mary River near Babb MT   1.80 170 16,500 2018-04-20 13:15:00 SMYM8
05018000 St. Mary Canal at intake near Babb MT   2.34 Ice   2018-04-20 13:15:00 SCIM8
05018500 St. Mary Canal at St. Mary Crossing near Babb MT   1.47 0.00   2018-04-20 13:15:00 SCCM8
05020500 St. Mary River at International Boundary 7.5 4.02 351 40,000 2018-04-20 13:10:00 SMBM8
06006000 Red Rock Cr ab Lakes nr Lakeview MT   2.90 36.1 293 2018-04-20 13:30:00 RRLM8
06012500 Red Rock R bl Lima Reservoir nr Monida MT   3.03 440 2,500 2018-04-20 13:30:00 LRRM8
06016000 Beaverhead River at Barretts MT   1.93 669 3,720 2018-04-20 13:15:00 BARM8
06017000 Beaverhead River at Dillon MT   4.60 531 1,740 2018-04-20 13:15:00 DILM8
06018500 Beaverhead River near Twin Bridges MT 7 5.10 508 3,130 2018-04-20 13:15:00 TWNM8
06019500 Ruby River above reservoir near Alder, MT   3.10 170 3,810 2018-04-20 13:45:00 RRRM8
06020600 Ruby River below reservoir near Alder, MT   2.49 81.0 3,010 2018-04-20 13:45:00 RRBM8
06023000 Ruby River near Twin Bridges MT  

 

Ssn 1,500 2017-11-01 11:45:00 RTBM8
06023100 Beaverhead River at Twin Bridges, MT  

 

Ssn   2017-10-05 14:30:00 TWBM8
06023500 Big Hole River near Jackson MT   1.21 Ice 938 2018-03-20 20:15:00 JKSM8
06023800 Big Hole River ab Spring Creek nr Jackson MT   2.20 54.4 474 2018-04-20 14:00:00 SCRM8
06024020 Big Hole River at Miner Creek nr Jackson MT   2.15 246 2,300 2018-04-20 13:15:00 MCKM8
06024450 Big Hole River bl Big Lake Cr at Wisdom MT   3.44 566 4,550 2018-04-20 13:45:00 BGKM8
06024540 Big Hole River bl Mudd Cr nr Wisdom MT   3.79 948 7,300 2018-04-20 13:30:00 BHDM8
06024580 Big Hole River near Wise River MT   3.90 1,380 9,130 2018-04-20 13:30:00 WSVM8
06025250 Big Hole River at Maiden Rock nr Divide MT   4.13 1,480 10,600 2018-04-20 13:45:00 MRDM8
06025500 Big Hole River near Melrose MT 6 2.79 1,460 23,000 2018-04-20 12:15:00 MLRM8
06026210 Big Hole River near Glen MT   3.39 1,500 11,900 2018-04-20 13:30:00 GNLM8
06026420 Big Hole R bl Hamilton Ditch nr Twin Bridges, MT  

 

Ssn 11,200 2017-11-01 00:45:00  
06026500 Jefferson River near Twin Bridges MT 10 4.79 1,980 104,000 2018-04-20 13:15:00 TWIM8
06027600 Jefferson River at Parsons Bdg nr Silver Star, MT  

 

Ssn 13,600 2017-10-06 12:30:00 PBRM8
06033000 Boulder River near Boulder MT   5.61 123 7,000 2018-04-20 13:15:00  
06035000 Willow Creek near Harrison MT   1.58 38.4 813 2018-04-20 13:15:00 WCHM8
06036650 Jefferson River near Three Forks MT 8 4.13 2,170 17,400 2018-04-20 13:00:00 TFKM8
06036805 Firehole River at Old Faithful, YNP   2.49 51.8 477 2018-04-20 14:00:00  
06036905 Firehole River near West Yellowstone MT   3.30 305 2,050 2018-04-20 13:00:00  
06036940 Tantalus Creek at Norris Junction, YNP   1.57 4.68 25 2018-04-20 13:30:00  
06037100 Gibbon River at Madison Jct, YNP   4.59 123 1,010 2018-04-20 13:00:00 GMJW4
06037500 Madison River near West Yellowstone MT   1.91 512 2,820 2018-04-20 13:30:00 MDSM8
06038500 Madison River bl Hebgen Lake nr Grayling MT   2.07 1,360 10,200 2018-04-20 13:45:00 HBDM8
06038800 Madison River at Kirby Ranch nr Cameron MT   2.21 1,400 5,030 2018-04-20 13:45:00 CMRM8
06040000 Madison River near Cameron MT   2.74 1,510 8,830 2018-04-20 13:15:00 CMNM8
06040800 Madison River ab powerplant nr McAllister MT   4.35 369 5,940 2018-04-20 13:30:00 MRPM8
06041000 Madison River bl Ennis Lake nr McAllister MT   2.72 1,690 9,550 2018-04-20 13:45:00 MADM8
06043500 Gallatin River near Gallatin Gateway MT 6 1.60 474 9,160 2018-04-20 13:00:00 GLGM8
06048650 E Gallatin R ab Water Reclamation Fa nr Bozeman MT   4.98 372 671 2018-04-20 13:30:00  
06050000 Hyalite C at Hyalite R S nr Bozeman MT   2.26 24.9 956 2018-04-20 13:30:00  
06052500 Gallatin River at Logan MT 9 5.43 1,320 9,840 2018-04-20 13:00:00 LOGM8
06054500 Missouri River at Toston MT 10.5 5.50 6,190 34,000 2018-04-20 13:00:00 TOSM8
06061500 Prickly Pear Creek near Clancy MT   1.23 63.4 2,300 2018-04-20 13:30:00 PKPM8
06062500 Tenmile Creek near Rimini MT   2.22 33.3 3,290 2018-04-20 13:45:00 RIMM8
06063000 Tenmile Creek near Helena MT 4.5 3.03 92.2 3,770 2018-04-20 13:15:00 TMHM8
06065500 Missouri River bl Hauser Dam near Helena MT   6.03 8,520 33,300 2018-04-20 13:00:00 HASM8
06066500 Missouri River bl Holter Dam nr Wolf Cr MT   4.55 8,490 34,800 2018-04-20 13:45:00 HTRM8
06071300 Little Prickly Pear Cr at Wolf Cr MT  

 

43.0 4,500 2008-09-30 23:45:00 LPPM8
06073500 Dearborn River near Craig MT 6.5 4.07 361 15,400 2018-04-20 13:15:00 DBRM8
06074000 Missouri River at Cascade MT  

 

9,760 54,250 2018-04-20 13:30:00  
06076690 Smith River near Ft Logan MT   3.54 277 4,600 2018-04-20 13:30:00 SFLM8
06077200 Smith River bl Eagle Cr nr Fort Logan MT   3.86 353 4,030 2018-04-20 13:15:00 SMHM8
06077500 Smith River near Eden MT   3.64 363 12,300 2018-04-20 13:45:00 EDNM8
06078200 Missouri River near Ulm MT 13.5 7.04 9,590 35,000 2018-04-20 13:00:00 ULMM8
06078500 North Fork Sun River near Augusta MT   3.87 197 51,100 2018-04-20 13:30:00 NFSM8
06079000 South Fork Sun River near Augusta MT   1.66 188 4,370 2018-04-20 13:15:00 SSNM8
06080900 Sun River bl Diversion Dam nr Augusta MT   4.33 324 59,700 2018-04-20 13:45:00  
06082200 Sun River bl Willow Cr nr Augusta MT   2.46 357 46,700 2018-04-20 13:15:00  
06085800 Sun River at Simms MT 7.5 2.99 609 50,000 2018-04-20 13:30:00 SSRM8
06088500 Muddy Creek at Vaughn MT 12 3.19 79.7 7,600 2018-04-20 13:30:00 MDYM8
06089000 Sun River near Vaughn MT 6 2.59 735 53,500 2018-04-20 13:00:00 VAUM8
06090000 Missouri River at Great Falls MT   11.39

 

  2018-04-20 13:30:00  
06090300 Missouri River near Great Falls MT   4.35 10,400 72,000 2018-04-20 13:45:00 GFLM8
06090500 Belt Creek near Monarch MT 6.5 2.32 62.0 11,000 2018-04-20 13:15:00 BTCM8
06090800 Missouri River at Fort Benton MT 13.5 3.77 10,800 140,000 2018-04-20 13:30:00 FBNM8
06091700 Two Medicine River bl South Fork nr Browning MT   2.66 312 11,700 2018-04-20 13:15:00 TMRM8
06093200 Badger Cr bl Four Horns Canal nr Browning MT 7 4.72 174 20,700 2018-04-20 13:15:00 BDCM8
06099000 Cut Bank Creek at Cut Bank MT   4.54 1,260 16,600 2018-04-20 13:30:00  
06099500 Marias River near Shelby MT 9 5.07 1,920 241,000 2018-04-20 13:30:00 SHLM8
06101500 Marias River near Chester MT   3.79 713 10,400 2018-04-20 13:15:00 MRCM8
06102050 Marias River near Loma MT   6.76 7,340 10,800 2018-04-20 13:00:00 LOMM8
06102500 Teton River bl South Fork nr Choteau MT   3.78 83.9 54,600 2018-04-20 13:45:00 TSFM8
06108000 Teton River near Dutton MT 9 3.83 510 71,300 2018-04-20 13:30:00 DTTM8
06108800 Teton River at Loma MT   4.34 703 3,910 2018-04-20 13:30:00 LTRM8
06109500 Missouri River at Virgelle MT 17 7.40 19,600 122,000 2018-04-20 13:00:00 VRGM8
06110020 Judith River above Carr Creek near Utica MT   2.29 6.05 542 2018-04-20 13:30:00  
06114700 Judith River nr mouth, nr Winifred MT   6.93 1,460 15,300 2018-04-20 13:15:00 JDRM8
06115200 Missouri River near Landusky MT 25 22.02 26,000 137,000 2018-04-20 13:00:00 LDKM8
06118500 South Fork Musselshell R ab Martinsdale MT   4.52 199 5,240 2018-04-20 13:30:00  
06119600 Musselshell River nr Martinsdale, MT   2.84 143 4,780 2018-04-20 13:15:00 MRMM8
06120500 Musselshell River at Harlowton MT 7 3.40 193 7,270 2018-04-20 14:00:00 HLWM8
06123030 Musselshell River ab Mud Cr nr Shawmut MT 6.5 3.96 278 8,900 2018-04-20 13:30:00 SHAM8
06125600 Musselshell River ab Big Coulee Creek at Lavina MT 8.5 3.41 499 4,890 2018-04-20 13:30:00 LVNM8
06126500 Musselshell River near Roundup MT 10 3.04 621 15,000 2018-04-20 13:00:00 RUPM8
06127500 Musselshell River at Musselshell MT 11 5.12 715 16,200 2018-04-20 13:30:00 MUSM8
06130000 Flatwillow Creek near Mosby MT  

 

8.48 19,700 2017-07-01 00:45:00  
06130500 Musselshell River at Mosby MT 10 6.50 3,320 25,100 2018-04-20 13:45:00 MSBM8
06131200 Nelson Creek near Van Norman MT   2.20 1.21 1,750 2018-04-20 13:15:00  
06132000 Missouri River below Fort Peck Dam MT   3.04

 

65,900 2018-04-20 13:15:00  
06133500 N F Milk River ab St. Mary canal nr Browning MT   2.68 84.5 3,090 2018-04-20 13:15:00 NFMM8
06134000 North Milk River near international boundary  

 

542 3,670 2003-05-24 23:45:00  
06135000 Milk River at Eastern Crossing of Int Bndry 9.5 4.38 1,480 14,400 2018-04-20 13:15:00 ERNM8
06139500 Big Sandy Creek near Havre MT 8.5 11.37 2,100 6,000 2018-04-20 13:30:00 BSMM8
06140500 Milk River at Havre MT 10 11.56 6,450 20,000 2018-04-20 13:15:00 HVRM8
06142400 Clear Creek near Chinook MT 5.5 3.56 60.5 1,490 2018-04-20 13:30:00 CCMM8
06151500 Battle Creek near Chinook MT 10 9.95 1,910 19,400 2018-04-20 13:30:00 BCMM8
06154100 Milk River near Harlem MT 21 24.22 7,210 19,000 2018-04-20 13:30:00 HRLM8
06154400 Peoples Creek near Hays MT   4.51 114 8,460 2018-04-20 13:15:00 PEOM8
06155030 Milk River near Dodson MT 23 27.52 10,000 13,200 2018-04-20 13:15:00 DMRM8
06155500 Milk River at Malta MT 16 16.01 8,430 24,000 2018-04-20 13:45:00 MALM8
06164000 Frenchman River at international boundary   3.128 Pr 22,700 2018-04-20 13:25:00  
06164510 Milk River at Juneberg Bridge nr Saco MT 20 22.57 10,900 12,400 2018-04-20 13:00:00 SACM8
06166000 Beaver Cr bl Guston Coulee nr Saco MT 11

 

2,170 23,500 2018-04-20 13:15:00 GSCM8
06167500 Beaver Creek near Hinsdale MT 14 13.53 1,780 8,210 2018-04-20 13:30:00 BCHM8
06169500 Rock Creek bl Horse Creek nr int'l boundary   4.86 Ice 5,110 2018-04-20 13:30:00 ORHM8
06172310 Milk River at Tampico MT 23 25.67 12,600 19,700 2018-04-20 13:30:00 TMPM8
06174500 Milk River at Nashua MT 20 18.04 9,280 45,300 2018-04-20 13:00:00 NSHM8
06175100 Missouri R at W Frazer Pump Plant nr Frazer MT   10.98

 

  2018-04-20 13:00:00  
06175510 Missouri R at E Frazer Pump Plant nr Frazer MT   45.22

 

  2018-04-20 13:30:00  
06177000 Missouri River near Wolf Point MT 23 15.04 17,900 93,200 2018-04-20 13:00:00 WPTM8
06177500 Redwater River at Circle MT 11 3.77 2.72 6,960 2018-04-20 13:30:00 RRCM8
06178000 Poplar River at international boundary 6 3.09 Ice 12,700 2018-04-20 13:15:00 PPRM8
06178500 East Poplar River at international boundary 10 5.13 Ice 4,020 2018-04-20 13:30:00 EPRM8
06181000 Poplar River near Poplar MT 15.5 6.26 914 40,000 2018-04-20 13:30:00 PLRM8
06183450 Big Muddy Creek near Antelope MT 12 11.06 1,140 3,190 2018-04-20 13:15:00 BGCM8
06185110 Big Muddy Creek nr mouth nr Culbertson MT 16 9.52 Bkw 2,480 2018-04-20 13:15:00 CBMM8
06185500 Missouri River near Culbertson MT 19 6.85 16,300 104,000 2018-04-20 13:00:00 CLBM8
06186500 Yellowstone River at Yellowstone Lk Outlet YNP 9 2.88 602 9,950 2018-04-20 13:30:00 YLOW4
06187915 Soda Butte Cr at Park Bndry at Silver Gate   0.12 Ice 1,250 2018-04-20 13:45:00 SBCM8
06188000 Lamar River nr Tower Ranger Station YNP 15 1.90 380 19,500 2018-04-20 13:15:00 TFLW4
06190540 Boiling River at Mammoth,YNP   1.07 22.4 36 2018-04-20 13:15:00  
06191000 Gardner River near Mammoth YNP   2.25 138 2,110 2018-04-20 13:45:00 GDRM8
06191500 Yellowstone River at Corwin Springs MT 11 1.95 1,610 32,200 2018-04-20 13:00:00 CORM8
06192500 Yellowstone River near Livingston MT 9.5 2.29 2,190 40,600 2018-04-20 13:45:00 LIVM8
06195600 Shields River nr Livingston MT 5.5 3.11 1,190 5,600 2018-04-20 13:30:00 SLDM8
06200000 Boulder River at Big Timber MT 7.5 2.72 315 9,940 2018-04-20 13:45:00 BTMM8
06204050 West Rosebud Creek near Roscoe MT   0.53 28.2 1,630 2018-04-20 14:00:00 WRDM8
06204070 W Rosebud Cr at Emerald Lk Campground nr Roscoe   1.25 33.9 1,390 2018-04-20 13:30:00 WREM8
06205000 Stillwater River near Absarokee MT 7 2.41 657 12,000 2018-04-20 13:15:00 SRAM8
06207500 Clarks Fork Yellowstone River nr Belfry MT 8 1.67 501 14,800 2018-04-20 14:00:00 BFYM8
06208500 Clarks Fork Yellowstone River at Edgar MT 8.5 2.36 678 11,100 2018-04-20 13:30:00 EDGM8
06209500 Rock Creek near Red Lodge MT   4.68 35.5 3,110 2018-04-20 14:00:00 ROKM8
06211000 Red Lodge Cr ab Cooney Re nr Boyd MT   2.60 140 4,700 2018-04-20 13:15:00 BYDM8
06211500 Willow Creek near Boyd MT   3.41 81.3 2,110 2018-04-20 13:30:00 BOYM8
06214500 Yellowstone River at Billings MT 13.5 4.41 7,130 82,000 2018-04-20 13:00:00 BILM8
06287000 Bighorn River near St. Xavier, MT   62.70 7,470 37,400 2018-04-20 13:00:00 STXM8
06287800 Bighorn River at bridge, at St. Xavier, MT   8.86 7,140 14,700 2018-04-20 13:30:00  
06288400 Bighorn River at Two Leggins Bridge, near Hardin   12.62 7,990 15,100 2018-04-20 13:30:00  
06289000 Little Bighorn River at State Line nr Wyola MT   2.30 75.5 2,730 2018-04-20 14:00:00 LBSM8
06294000 Little Bighorn River near Hardin MT 8 3.64 576 22,600 2018-04-20 13:15:00 HRDM8
06294500 Bighorn River ab Tullock Cr nr Bighorn MT   4.98 8,620 33,200 2018-04-20 13:00:00 BGHM8
06295000 Yellowstone River at Forsyth MT 14 4.34 17,400 109,800 2018-04-20 13:45:00 FRYM8
06295113 Rosebud C at Reservation Bndry nr Kirby MT   4.84 55.4 1,720 2018-04-20 13:45:00 RCRM8
06295220 Rosebud C Bel Lame Deer C nr Lame Deer MT   6.29 91.4 104 2018-04-20 13:45:00  
06306300 Tongue River at State Line nr Decker MT   3.07 354 17,500 2018-04-20 10:30:00 DSLM8
06307500 Tongue River at Tongue R Dam nr Decker MT   11.74 481 10,800 2018-04-20 13:30:00 DKRM8
06307616 Tongue R at Birney Day School Br nr Birney MT 7 2.23 543 5,340 2018-04-20 13:30:00 BNYM8
06307830 Tongue R bl Brandenberg bridge nr Ashland MT   3.73 449 8,340 2018-04-20 13:15:00  
06308400 Pumpkin Creek near Miles City MT 13 2.85 21.9 7,900 2018-04-20 13:45:00 PMKM8
06308500 Tongue River at Miles City, MT 10 3.51 620 15,300 2018-04-20 13:00:00 MICM8
06309000 Yellowstone River at Miles City MT 13 6.25 19,400 102,000 2018-04-20 13:00:00 MILM8
06324500 Powder River at Moorhead MT   3.75 461 100,000 2018-04-20 13:45:00 MHDM8
06326500 Powder River near Locate MT   2.03 665 31,000 2018-04-20 13:00:00 LOCM8
06327450 Cains Coulee at Glendive MT  

 

4.60 1,770 2004-09-30 23:55:00  
06327500 Yellowstone River at Glendive MT 53.5 46.01 21,600 125,000 2018-04-20 13:00:00 GLNM8
06329500 Yellowstone River near Sidney MT 19 8.20 21,700 159,000 2018-04-20 13:00:00 SIDM8
12301250 Tobacco River at Eureka, MT   3.55 433 1,940 2018-04-20 13:30:00  
12301933 Kootenai River bl Libby Dam nr Libby MT 27.5 17.79 3,990 54,000 2018-04-20 13:00:00 KBDM8
12302055 Fisher River near Libby MT 7.5 5.41 1,420 12,000 2018-04-20 13:45:00 FISM8
12304500 Yaak River near Troy MT 8 5.50 1,880 13,400 2018-04-20 13:45:00 TRYM8
12323240 Blacktail Creek at Butte MT 4.3 1.33 28.5 303 2018-04-20 13:45:00 BKTM8
12323250 Silver Bow Cr bl Blacktail Cr at Butte MT   1.91 39.8 447 2018-04-20 13:45:00  
12323600 Silver Bow Creek at Opportunity MT   2.44 74.7 1,300 2018-04-20 13:45:00  
12323670 Mill Creek nr Anaconda, MT   2.40 28.8 432 2018-04-20 13:00:00  
12323700 Mill Creek at Opportunity, MT   2.33 33.9 284 2018-04-20 13:30:00  
12323710 Willow Creek nr Anaconda, MT   2.28 Ice 165 2018-04-20 13:00:00  
12323720 Willow Creek at Opportunity, MT   4.15 14.0 202 2018-04-20 13:30:00  
12323750 Silver Bow Creek at Warm Springs MT   2.40 169 1,320 2018-04-20 13:15:00  
12323760 Warm Springs Creek near Anaconda MT 4.4 2.04 67.0 930 2018-04-20 13:30:00 ANDM8
12323770 Warm Springs Creek at Warm Springs MT   2.97 48.2 828 2018-04-20 13:45:00  
12323800 Clark Fork near Galen MT   2.45 200 1,410 2018-04-20 13:30:00  
12323840 Lost Creek near Anaconda MT   2.73 7.95 101 2018-04-20 13:00:00  
12323850 Lost Creek near Galen, MT   1.86 43.1 164 2018-04-20 13:30:00  
12324200 Clark Fork at Deer Lodge MT 6 3.10 337 2,500 2018-04-20 13:30:00 DLGM8
12324400 Clark Fork ab Little Blackfoot R nr Garrison MT   3.62 407 2,690 2018-04-20 13:45:00  
12324590 Little Blackfoot River near Garrison MT   2.86 525 8,650 2018-04-20 13:30:00  
12324680 Clark Fork at Goldcreek MT   5.41 1,050 12,000 2018-04-20 14:00:00  
12325000 Georgetown Lake near Philipsburg, MT   6428.10

 

  2018-04-20 13:15:00  
12325500 Flint Creek near Southern Cross MT   0.95 41.1 192 2018-04-20 13:45:00  
12329500 Flint Creek at Maxville MT   2.75 174 3,140 2018-04-20 13:45:00  
12330000 Boulder Creek at Maxville MT   1.48 29.8 2,720 2018-04-20 13:30:00  
12331500 Flint Creek near Drummond MT   3.21 315 1,880 2018-04-20 13:30:00  
12331800 Clark Fork near Drummond MT 8 4.60 1,520 9,800 2018-04-20 13:15:00 DRMM8
12332000 Middle Fork Rock Cr nr Philipsburg MT   1.90 104 1,680 2018-04-20 13:15:00  
12334510 Rock Creek near Clinton MT 9 5.93 775 6,500 2018-04-20 13:45:00 RCCM8
12334550 Clark Fork at Turah Bridge nr Bonner MT   5.19 2,430 13,300 2018-04-20 13:30:00  
12335100 Blackfoot R ab Nevada Cr nr Helmville MT  

 

185 4,860 2017-10-17 13:45:00  
12335500 Nevada Cr ab reservoir, nr Helmville, MT   3.30 218 1,800 2018-04-20 13:45:00  
12340000 Blackfoot River near Bonner MT 10 5.15 4,030 19,200 2018-04-20 13:45:00 BONM8
12340500 Clark Fork above Missoula MT 10 5.39 6,660 48,000 2018-04-20 14:00:00 ABOM8
12342500 West Fork Bitterroot River nr Conner MT   2.15 377 4,060 2018-04-20 13:15:00 WFBM8
12344000 Bitterroot River near Darby MT 7.5 3.07 1,330 11,500 2018-04-20 13:15:00 DARM8
12350250 Bitterroot River at Bell Crossing nr Victor MT 11 5.64 Eqp 18,700 2018-04-19 10:30:00 VICM8
12352500 Bitterroot River near Missoula MT 11 4.97 2,970 38,300 2018-04-20 13:45:00 BITM8
12353000 Clark Fork below Missoula MT 11 4.47 9,410 55,100 2018-04-20 14:00:00 BELM8
12354000 St. Regis River near St. Regis, MT 8 4.01 1,080 29,000 2018-04-20 13:45:00 STRM8
12354500 Clark Fork at St. Regis MT 19 9.37 12,200 68,900 2018-04-20 13:45:00 SRGM8
12355000 Flathead River at Flathead British Columbia 10.5 4.35 258 16,300 2018-04-20 13:30:00 NFFQ2
12355500 N F Flathead River nr Columbia Falls MT 13 3.39 2,420 69,100 2018-04-20 13:45:00 FCFM8
12357800 Snyder Creek nr mouth, nr West Glacier, MT 8 3.23

 

  2018-04-20 13:40:00 SNYM8
12358500 M F Flathead River near West Glacier MT 10 3.08 2,340 140,000 2018-04-20 13:45:00 WGCM8
12359800 S F Flathead R ab Twin C nr Hungry Horse MT   7.07 2,380 50,900 2018-04-20 13:45:00 TNCM8
12362000 Hungry Horse Reservoir nr Hungry Horse MT   3478.54

 

  2018-04-20 13:45:00  
12362500 S F Flathead River nr Columbia Falls MT   12.15 14,800 46,200 2018-04-20 13:45:00  
12363000 Flathead River at Columbia Falls MT 13 8.70 20,700 176,000 2018-04-20 13:45:00 CFMM8
12365700 Stillwater River at Lawrence Park, at Kalispell 7.5 4.26 565 3,940 2018-04-20 13:45:00 SRLM8
12366080 Whitefish River nr mouth at Kalispell, MT 8.3 2.92 233 1,450 2018-04-20 13:45:00 WFRM8
12366500 Flathead River at Foys Bend nr Kalispell MT   92.63

 

  2018-04-20 13:45:00  
12370000 Swan River near Bigfork, MT 6.5 4.16 2,490 8,890 2018-04-20 13:00:00 SWRM8
12371550 Flathead Lake at Polson MT   2886.20

 

  2018-04-20 13:30:00 KERM8
12372000 Flathead River near Polson MT 18 8.66 16,800 110,000 2018-04-20 13:30:00 FPOM8
12374250 Mill Cr ab Bassoo Cr nr Niarada MT   2.17 66.3 302 2018-04-20 13:15:00  
12375900 South Crow Creek near Ronan MT   2.11 11.4 608 2018-04-20 13:15:00  
12377150 Mission Creek ab reservoir nr St. Ignatius MT   1.50 17.1 706 2018-04-20 13:15:00  
12381400 South Fork Jocko River near Arlee MT   1.61 52.1 1,220 2018-04-20 13:15:00  
12388700 Flathead River at Perma MT   11.47 15,800 54,900 2018-04-20 13:30:00 PERM8
12389000 Clark Fork near Plains MT 16 7.89 28,500 134,000 2018-04-20 13:45:00 PLNM8
12389500 Thompson River near Thompson Falls MT 7 4.14 972 6,190 2018-04-20 13:45:00 THRM8
12390700 Prospect Creek at Thompson Falls MT 7.5 3.09 499 5,490 2018-04-20 13:15:00 PRCM8
480608115242901 Libby Wetland Site bl Schrieber Lake nr Libby, MT   1.84 18.0 34 2018-04-20 13:30:00